createdAt,value
2018-11-06T00:00:53.388Z,0
2018-11-06T00:02:05.601Z,0
2018-11-06T00:03:15.725Z,0
2018-11-06T00:04:25.895Z,0
2018-11-06T00:05:35.542Z,0
2018-11-06T00:06:45.470Z,0
2018-11-06T00:07:55.604Z,0
2018-11-06T00:09:07.650Z,0
2018-11-06T00:10:17.890Z,0
2018-11-06T00:11:28.295Z,0
2018-11-06T00:12:38.410Z,0
2018-11-06T00:13:48.367Z,0
2018-11-06T00:14:58.559Z,0
2018-11-06T00:16:08.549Z,0
2018-11-06T00:17:18.130Z,0
2018-11-06T00:18:27.797Z,0
2018-11-06T00:19:37.911Z,0
2018-11-06T00:20:48.028Z,0
2018-11-06T00:21:58.209Z,0
2018-11-06T00:23:08.351Z,0
2018-11-06T00:24:18.551Z,0
2018-11-06T00:25:28.438Z,0
2018-11-06T00:26:38.647Z,0
2018-11-06T00:27:48.419Z,0
2018-11-06T00:28:58.728Z,0
2018-11-06T00:30:10.719Z,0
2018-11-06T00:31:24.570Z,0
2018-11-06T00:32:36.235Z,0
2018-11-06T00:33:46.116Z,0
2018-11-06T00:34:56.256Z,0
2018-11-06T00:36:06.201Z,0
2018-11-06T00:37:15.868Z,0
2018-11-06T00:38:25.467Z,0
2018-11-06T00:39:35.645Z,0
2018-11-06T00:40:45.411Z,0
2018-11-06T00:41:55.553Z,0
2018-11-06T00:43:05.140Z,0
2018-11-06T00:44:14.731Z,0
2018-11-06T00:45:23.822Z,0
2018-11-06T00:46:33.791Z,0
2018-11-06T00:47:43.872Z,0
2018-11-06T00:48:53.983Z,0
2018-11-06T00:50:04.252Z,0
2018-11-06T00:51:14.499Z,0
2018-11-06T00:52:24.104Z,0
2018-11-06T00:53:34.215Z,0
2018-11-06T00:54:43.914Z,0
2018-11-06T00:55:54.042Z,0
2018-11-06T00:57:04.231Z,0
2018-11-06T00:58:14.178Z,0
2018-11-06T00:59:24.337Z,0
2018-11-06T01:00:34.577Z,0
2018-11-06T01:01:44.673Z,0
2018-11-06T01:02:54.774Z,0
2018-11-06T01:04:06.041Z,0
2018-11-06T01:05:15.638Z,0
2018-11-06T01:06:25.778Z,0
2018-11-06T01:07:36.231Z,0
2018-11-06T01:08:46.240Z,0
2018-11-06T01:09:57.055Z,0
2018-11-06T01:11:07.154Z,0
2018-11-06T01:12:17.017Z,0
2018-11-06T01:13:26.578Z,0
2018-11-06T01:14:36.367Z,0
2018-11-06T01:15:46.433Z,0
2018-11-06T01:16:56.248Z,0
2018-11-06T01:18:06.864Z,0
2018-11-06T01:19:16.716Z,0
2018-11-06T01:20:26.915Z,0
2018-11-06T01:21:36.755Z,0
2018-11-06T01:22:46.368Z,0
2018-11-06T01:23:56.517Z,0
2018-11-06T01:25:06.192Z,0
2018-11-06T01:26:16.260Z,0
2018-11-06T01:27:26.322Z,0
2018-11-06T01:28:36.454Z,0
2018-11-06T01:29:46.060Z,0
2018-11-06T01:30:55.913Z,0
2018-11-06T01:32:06.001Z,0
2018-11-06T01:33:15.285Z,0
2018-11-06T01:34:25.385Z,0
2018-11-06T01:35:35.713Z,0
2018-11-06T01:36:45.512Z,0
2018-11-06T01:37:55.697Z,0
2018-11-06T01:39:05.763Z,0
2018-11-06T01:40:15.572Z,0
2018-11-06T01:41:25.398Z,0
2018-11-06T01:42:35.487Z,0
2018-11-06T01:43:45.098Z,0
2018-11-06T01:44:54.917Z,0
2018-11-06T01:46:04.742Z,0
2018-11-06T01:47:14.816Z,0
2018-11-06T01:48:24.412Z,0
2018-11-06T01:49:34.211Z,0
2018-11-06T01:50:43.745Z,0
2018-11-06T01:51:53.571Z,0
2018-11-06T01:53:03.878Z,0
2018-11-06T01:54:13.824Z,0
2018-11-06T01:55:23.970Z,0
2018-11-06T01:56:33.808Z,0
2018-11-06T01:57:43.624Z,0
2018-11-06T01:58:53.696Z,0
2018-11-06T02:00:03.836Z,0
2018-11-06T02:01:13.631Z,0
2018-11-06T02:02:23.175Z,0
2018-11-06T02:03:33.255Z,0
2018-11-06T02:04:43.059Z,0
2018-11-06T02:05:52.885Z,0
2018-11-06T02:07:04.674Z,0
2018-11-06T02:08:14.756Z,0
2018-11-06T02:09:24.573Z,0
2018-11-06T02:10:34.659Z,0
2018-11-06T02:11:44.461Z,0
2018-11-06T02:12:54.063Z,0
2018-11-06T02:14:04.137Z,0
2018-11-06T02:15:13.931Z,0
2018-11-06T02:16:23.851Z,0
2018-11-06T02:17:33.449Z,0
2018-11-06T02:18:43.585Z,0
2018-11-06T02:19:53.656Z,0
2018-11-06T02:21:03.730Z,0
2018-11-06T02:22:13.547Z,0
2018-11-06T02:23:23.603Z,0
2018-11-06T02:24:33.719Z,0
2018-11-06T02:25:43.832Z,0
2018-11-06T02:26:53.464Z,0
2018-11-06T02:28:03.274Z,0
2018-11-06T02:29:13.341Z,0
2018-11-06T02:30:23.422Z,0
2018-11-06T02:31:33.150Z,0
2018-11-06T02:32:43.417Z,0
2018-11-06T02:33:53.499Z,0
2018-11-06T02:35:03.581Z,0
2018-11-06T02:36:13.599Z,0
2018-11-06T02:37:23.704Z,0
2018-11-06T02:38:33.612Z,0
2018-11-06T02:39:43.422Z,0
2018-11-06T02:40:53.253Z,0
2018-11-06T02:42:03.070Z,0
2018-11-06T02:43:12.885Z,0
2018-11-06T02:44:22.708Z,0
2018-11-06T02:45:32.580Z,0
2018-11-06T02:46:42.502Z,0
2018-11-06T02:47:52.659Z,0
2018-11-06T02:49:03.281Z,0
2018-11-06T02:50:13.138Z,0
2018-11-06T02:51:23.223Z,0
2018-11-06T02:52:33.539Z,0
2018-11-06T02:53:43.728Z,0
2018-11-06T02:54:53.318Z,0
2018-11-06T02:56:03.518Z,0
2018-11-06T02:57:13.843Z,0
2018-11-06T02:58:23.749Z,0
2018-11-06T02:59:33.816Z,0
2018-11-06T03:00:43.898Z,0
2018-11-06T03:01:53.729Z,0
2018-11-06T03:34:30.086Z,0
2018-11-06T03:35:39.902Z,0
2018-11-06T03:36:49.764Z,0
2018-11-06T03:37:59.998Z,0
2018-11-06T03:39:10.109Z,0
2018-11-06T03:40:20.176Z,0
2018-11-06T03:41:30.239Z,0
2018-11-06T03:42:40.045Z,0
2018-11-06T03:43:49.855Z,0
2018-11-06T03:44:59.943Z,0
2018-11-06T03:46:10.015Z,0
2018-11-06T03:47:19.820Z,0
2018-11-06T03:48:29.892Z,0
2018-11-06T03:49:39.985Z,0
2018-11-06T03:50:49.822Z,0
2018-11-06T03:51:59.947Z,0
2018-11-06T03:53:09.779Z,0
2018-11-06T03:54:19.589Z,0
2018-11-06T03:55:29.714Z,0
2018-11-06T03:56:39.760Z,0
2018-11-06T03:57:49.903Z,0
2018-11-06T03:58:59.721Z,0
2018-11-06T04:00:10.869Z,0
2018-11-06T04:01:20.966Z,0
2018-11-06T04:02:30.869Z,0
2018-11-06T04:03:40.704Z,0
2018-11-06T04:04:50.513Z,0
2018-11-06T04:06:00.605Z,0
2018-11-06T04:07:10.465Z,0
2018-11-06T04:08:20.271Z,0
2018-11-06T04:09:30.340Z,0
2018-11-06T04:10:40.160Z,0
2018-11-06T04:11:50.229Z,0
2018-11-06T04:13:00.370Z,0
2018-11-06T04:14:10.485Z,0
2018-11-06T04:15:19.868Z,0
2018-11-06T04:16:29.680Z,0
2018-11-06T04:17:39.550Z,0
2018-11-06T04:18:49.624Z,0
2018-11-06T04:19:59.168Z,0
2018-11-06T04:21:08.957Z,0
2018-11-06T04:22:19.026Z,0
2018-11-06T04:23:29.109Z,0
2018-11-06T04:24:39.197Z,0
2018-11-06T04:25:49.280Z,0
2018-11-06T04:26:58.948Z,0
2018-11-06T04:28:09.046Z,0
2018-11-06T04:29:19.127Z,0
2018-11-06T04:30:28.929Z,0
2018-11-06T04:31:38.744Z,0
2018-11-06T04:32:48.657Z,0
2018-11-06T04:33:58.972Z,0
2018-11-06T04:35:08.791Z,0
2018-11-06T04:36:18.880Z,0
2018-11-06T04:37:28.969Z,0
2018-11-06T04:38:38.828Z,0
2018-11-06T04:39:48.657Z,0
2018-11-06T04:40:58.436Z,0
2018-11-06T04:42:09.004Z,0
2018-11-06T04:43:18.819Z,0
2018-11-06T04:44:28.695Z,0
2018-11-06T04:45:38.767Z,0
2018-11-06T04:46:48.569Z,0
2018-11-06T04:47:58.670Z,0
2018-11-06T04:49:09.344Z,0
2018-11-06T04:50:21.584Z,0
2018-11-06T04:51:32.552Z,0
2018-11-06T04:52:42.630Z,0
2018-11-06T04:53:52.442Z,0
2018-11-06T04:55:02.528Z,0
2018-11-06T04:56:12.358Z,0
2018-11-06T04:57:22.175Z,0
2018-11-06T04:58:32.256Z,0
2018-11-06T04:59:42.059Z,0
2018-11-06T05:00:51.887Z,0
2018-11-06T05:02:01.613Z,0
2018-11-06T05:03:11.875Z,0
2018-11-06T05:04:21.980Z,0
2018-11-06T05:05:31.788Z,0
2018-11-06T05:06:41.387Z,0
2018-11-06T05:07:51.212Z,0
2018-11-06T05:09:01.027Z,0
2018-11-06T05:10:10.953Z,0
2018-11-06T05:11:20.499Z,0
2018-11-06T05:12:30.552Z,0
2018-11-06T05:13:40.420Z,0
2018-11-06T05:14:49.713Z,0
2018-11-06T05:15:59.523Z,4
2018-11-06T05:17:09.389Z,0
2018-11-06T05:18:19.460Z,0
2018-11-06T05:19:29.571Z,4
2018-11-06T05:20:39.648Z,0
2018-11-06T05:21:49.448Z,4
2018-11-06T05:22:59.522Z,4
2018-11-06T05:24:09.588Z,4
2018-11-06T05:25:20.239Z,4
2018-11-06T05:26:29.846Z,8
2018-11-06T05:27:39.936Z,12
2018-11-06T05:28:49.753Z,12
2018-11-06T05:29:59.864Z,12
2018-11-06T05:31:09.746Z,16
2018-11-06T05:32:20.075Z,20
2018-11-06T05:33:29.881Z,24
2018-11-06T05:34:39.835Z,24
2018-11-06T05:35:49.958Z,36
2018-11-06T05:36:59.759Z,36
2018-11-06T05:38:10.434Z,44
2018-11-06T05:39:20.901Z,52
2018-11-06T05:40:31.013Z,60
2018-11-06T05:41:40.584Z,68
2018-11-06T05:42:50.392Z,76
2018-11-06T05:44:01.222Z,88
2018-11-06T05:45:11.209Z,96
2018-11-06T05:46:21.265Z,108
2018-11-06T05:47:31.069Z,124
2018-11-06T05:48:41.210Z,140
2018-11-06T05:49:51.278Z,152
2018-11-06T05:51:02.504Z,168
2018-11-06T05:52:12.299Z,184
2018-11-06T05:53:22.605Z,204
2018-11-06T05:54:32.768Z,220
2018-11-06T05:55:43.061Z,240
2018-11-06T05:56:52.897Z,260
2018-11-06T05:58:02.425Z,280
2018-11-06T05:59:12.340Z,300
2018-11-06T06:00:22.329Z,320
2018-11-06T06:01:32.187Z,344
2018-11-06T06:02:42.286Z,368
2018-11-06T06:03:52.621Z,388
2018-11-06T06:05:02.749Z,408
2018-11-06T06:06:12.625Z,432
2018-11-06T06:07:22.708Z,456
2018-11-06T06:08:32.767Z,476
2018-11-06T06:09:42.607Z,500
2018-11-06T06:10:52.192Z,520
2018-11-06T06:12:02.415Z,540
2018-11-06T06:13:12.486Z,560
2018-11-06T06:14:22.557Z,584
2018-11-06T06:15:32.666Z,604
2018-11-06T06:16:43.180Z,628
2018-11-06T06:17:52.941Z,644
2018-11-06T06:19:03.042Z,664
2018-11-06T06:20:12.590Z,688
2018-11-06T06:21:22.697Z,700
2018-11-06T06:22:33.026Z,724
2018-11-06T06:23:43.448Z,740
2018-11-06T06:24:53.248Z,768
2018-11-06T06:26:03.326Z,780
2018-11-06T06:27:13.404Z,812
2018-11-06T06:28:23.637Z,848
2018-11-06T06:29:33.255Z,840
2018-11-06T06:30:42.821Z,876
2018-11-06T06:31:52.906Z,876
2018-11-06T06:33:02.747Z,896
2018-11-06T06:34:12.817Z,892
2018-11-06T06:35:22.932Z,932
2018-11-06T06:36:33.058Z,908
2018-11-06T06:37:43.136Z,904
2018-11-06T06:38:53.639Z,880
2018-11-06T06:40:04.130Z,900
2018-11-06T06:41:14.544Z,888
2018-11-06T06:42:24.934Z,912
2018-11-06T06:43:34.731Z,876
2018-11-06T06:44:44.531Z,964
2018-11-06T06:45:54.084Z,908
2018-11-06T06:47:03.247Z,928
2018-11-06T06:48:13.373Z,892
2018-11-06T06:49:23.176Z,964
2018-11-06T06:50:33.362Z,968
2018-11-06T06:51:43.162Z,976
2018-11-06T06:52:52.965Z,856
2018-11-06T06:54:03.540Z,892
2018-11-06T06:55:14.685Z,956
2018-11-06T06:56:25.266Z,896
2018-11-06T06:57:34.551Z,952
2018-11-06T06:58:44.705Z,988
2018-11-06T06:59:54.532Z,1044
2018-11-06T07:01:04.433Z,1076
2018-11-06T07:02:14.251Z,1128
2018-11-06T07:03:24.423Z,1148
2018-11-06T07:04:34.256Z,1116
2018-11-06T07:05:44.068Z,1172
2018-11-06T07:06:53.965Z,1248
2018-11-06T07:08:03.791Z,1352
2018-11-06T07:09:13.876Z,1372
2018-11-06T07:10:23.991Z,1972
2018-11-06T07:11:33.527Z,1764
2018-11-06T07:12:43.796Z,1536
2018-11-06T07:13:53.962Z,2076
2018-11-06T07:15:03.506Z,2028
2018-11-06T07:16:13.310Z,2016
2018-11-06T07:17:23.405Z,2228
2018-11-06T07:18:32.890Z,1924
2018-11-06T07:19:42.998Z,2000
2018-11-06T07:20:52.814Z,2060
2018-11-06T07:22:02.781Z,2248
2018-11-06T07:23:12.896Z,2220
2018-11-06T07:24:22.989Z,2092
2018-11-06T07:25:33.076Z,2172
2018-11-06T07:26:42.917Z,2172
2018-11-06T07:27:52.724Z,2224
2018-11-06T07:29:05.330Z,2120
2018-11-06T07:30:15.400Z,1964
2018-11-06T07:31:25.475Z,2068
2018-11-06T07:32:35.024Z,2244
2018-11-06T07:33:44.829Z,2160
2018-11-06T07:34:55.747Z,2100
2018-11-06T07:36:07.184Z,2584
2018-11-06T07:37:17.312Z,2424
2018-11-06T07:38:27.146Z,2300
2018-11-06T07:39:37.232Z,2496
2018-11-06T07:40:47.596Z,2840
2018-11-06T07:41:57.537Z,2672
2018-11-06T07:43:07.627Z,2292
2018-11-06T07:44:17.440Z,2740
2018-11-06T07:45:27.753Z,2784
2018-11-06T07:46:38.045Z,2748
2018-11-06T07:47:47.979Z,2932
2018-11-06T07:48:57.794Z,2988
2018-11-06T07:50:08.227Z,3016
2018-11-06T07:51:18.400Z,3076
2018-11-06T07:52:28.219Z,3060
2018-11-06T07:53:37.878Z,2916
2018-11-06T07:54:47.984Z,3208
2018-11-06T07:55:58.510Z,3208
2018-11-06T07:57:08.691Z,3208
2018-11-06T07:58:18.531Z,3284
2018-11-06T07:59:28.662Z,3248
2018-11-06T08:00:38.576Z,3288
2018-11-06T08:01:48.393Z,3360
2018-11-06T08:02:58.203Z,3396
2018-11-06T08:04:08.462Z,3368
2018-11-06T08:05:18.998Z,3460
2018-11-06T08:06:29.568Z,3472
2018-11-06T08:07:39.516Z,3576
2018-11-06T08:08:49.375Z,3364
2018-11-06T08:09:59.613Z,3484
2018-11-06T08:11:11.269Z,3580
2018-11-06T08:12:21.408Z,3516
2018-11-06T08:13:31.230Z,3576
2018-11-06T08:14:41.909Z,3684
2018-11-06T08:15:52.274Z,3576
2018-11-06T08:17:03.613Z,3732
2018-11-06T08:18:13.896Z,3700
2018-11-06T08:19:23.731Z,3672
2018-11-06T08:20:33.707Z,3748
2018-11-06T08:21:43.928Z,3800
2018-11-06T08:22:53.489Z,3856
2018-11-06T08:24:05.353Z,3768
2018-11-06T08:25:15.313Z,3816
2018-11-06T08:26:25.123Z,3872
2018-11-06T08:27:35.123Z,3776
2018-11-06T08:28:45.030Z,3924
2018-11-06T08:29:55.095Z,3856
2018-11-06T08:31:06.804Z,3948
2018-11-06T08:32:17.734Z,3952
2018-11-06T08:33:28.774Z,3908
2018-11-06T08:34:38.878Z,3984
2018-11-06T08:35:48.959Z,4044
2018-11-06T08:36:59.428Z,4012
2018-11-06T08:38:09.951Z,3940
2018-11-06T08:39:19.789Z,3924
2018-11-06T08:40:29.867Z,3956
2018-11-06T08:41:39.967Z,3952
2018-11-06T08:42:49.776Z,4100
2018-11-06T08:43:59.873Z,4092
2018-11-06T08:45:09.705Z,4128
2018-11-06T08:46:19.867Z,4064
2018-11-06T08:47:29.512Z,4200
2018-11-06T08:48:39.829Z,4088
2018-11-06T08:49:49.640Z,4180
2018-11-06T08:50:59.389Z,4152
2018-11-06T08:52:09.218Z,4192
2018-11-06T08:53:19.053Z,4184
2018-11-06T08:54:29.060Z,4208
2018-11-06T08:55:38.945Z,4336
2018-11-06T08:56:49.039Z,3740
2018-11-06T08:57:58.603Z,4412
2018-11-06T08:59:11.003Z,4332
2018-11-06T09:00:20.855Z,4304
2018-11-06T09:01:30.717Z,4264
2018-11-06T09:02:40.585Z,4400
2018-11-06T09:03:50.870Z,4428
2018-11-06T09:05:01.425Z,4380
2018-11-06T09:06:11.048Z,4388
2018-11-06T09:07:20.450Z,4464
2018-11-06T09:08:30.525Z,4360
2018-11-06T09:09:40.614Z,4568
2018-11-06T09:10:50.739Z,4480
2018-11-06T09:12:02.934Z,4572
2018-11-06T09:13:13.066Z,4576
2018-11-06T09:14:22.900Z,4532
2018-11-06T09:15:32.989Z,4532
2018-11-06T09:16:42.856Z,4632
2018-11-06T09:17:52.994Z,4476
2018-11-06T09:19:03.773Z,4596
2018-11-06T09:20:13.074Z,4616
2018-11-06T09:21:22.631Z,4600
2018-11-06T09:22:32.776Z,4636
2018-11-06T09:23:42.703Z,4468
2018-11-06T09:24:52.252Z,4684
2018-11-06T09:26:02.342Z,4804
2018-11-06T09:27:12.449Z,4648
2018-11-06T09:28:22.527Z,4728
2018-11-06T09:29:32.630Z,4764
2018-11-06T09:30:42.550Z,4816
2018-11-06T09:31:52.717Z,4844
2018-11-06T09:33:02.821Z,4876
2018-11-06T09:34:12.657Z,4808
2018-11-06T09:35:22.776Z,4776
2018-11-06T09:36:32.851Z,4916
2018-11-06T09:37:42.914Z,4880
2018-11-06T09:38:52.978Z,4936
2018-11-06T09:40:03.626Z,4912
2018-11-06T09:41:13.937Z,4880
2018-11-06T09:42:24.170Z,4912
2018-11-06T09:43:34.001Z,4908
2018-11-06T09:44:44.109Z,4952
2018-11-06T09:45:53.917Z,4932
2018-11-06T09:47:03.721Z,4984
2018-11-06T09:48:13.287Z,5000
2018-11-06T09:49:23.114Z,4984
2018-11-06T09:50:33.001Z,4980
2018-11-06T09:51:43.077Z,4992
2018-11-06T09:52:52.891Z,4952
2018-11-06T09:54:04.808Z,4988
2018-11-06T09:55:14.645Z,4932
2018-11-06T09:56:24.783Z,4856
2018-11-06T09:57:34.337Z,5020
2018-11-06T09:58:44.418Z,4892
2018-11-06T09:59:54.492Z,5024
2018-11-06T10:01:04.327Z,4964
2018-11-06T10:02:14.494Z,4872
2018-11-06T10:03:24.590Z,5048
2018-11-06T10:04:34.417Z,5052
2018-11-06T10:05:44.648Z,4952
2018-11-06T10:06:55.549Z,4984
2018-11-06T10:08:06.475Z,5032
2018-11-06T10:09:16.407Z,5016
2018-11-06T10:10:26.089Z,5036
2018-11-06T10:11:36.462Z,5052
2018-11-06T10:12:46.543Z,5104
2018-11-06T10:13:56.669Z,5076
2018-11-06T10:15:06.767Z,5008
2018-11-06T10:16:16.867Z,4888
2018-11-06T10:17:26.987Z,5152
2018-11-06T10:18:36.693Z,4900
2018-11-06T10:19:46.764Z,5044
2018-11-06T10:20:56.869Z,5124
2018-11-06T10:22:06.957Z,5140
2018-11-06T10:23:17.060Z,5084
2018-11-06T10:24:27.154Z,5144
2018-11-06T10:25:36.972Z,5172
2018-11-06T10:26:47.244Z,5156
2018-11-06T10:27:57.063Z,5196
2018-11-06T10:29:10.237Z,5216
2018-11-06T10:30:20.059Z,5144
2018-11-06T10:31:29.872Z,5180
2018-11-06T10:32:39.960Z,5228
2018-11-06T10:33:49.708Z,5176
2018-11-06T10:34:59.798Z,5292
2018-11-06T10:36:09.617Z,5136
2018-11-06T10:37:19.188Z,5196
2018-11-06T10:38:29.190Z,5168
2018-11-06T10:39:40.121Z,5300
2018-11-06T10:40:51.256Z,5460
2018-11-06T10:42:02.097Z,5392
2018-11-06T10:43:13.227Z,5200
2018-11-06T10:44:24.390Z,5340
2018-11-06T10:45:35.160Z,5264
2018-11-06T10:46:45.769Z,5272
2018-11-06T10:47:56.687Z,5400
2018-11-06T10:49:08.992Z,5364
2018-11-06T10:50:19.596Z,5360
2018-11-06T10:51:30.194Z,5424
2018-11-06T10:52:40.592Z,5492
2018-11-06T10:53:51.616Z,5456
2018-11-06T10:55:01.563Z,5420
2018-11-06T10:56:12.400Z,5392
2018-11-06T10:57:22.743Z,5540
2018-11-06T10:58:33.631Z,5576
2018-11-06T10:59:44.249Z,5408
2018-11-06T11:00:54.899Z,5328
2018-11-06T11:02:05.176Z,5396
2018-11-06T11:03:15.025Z,5484
2018-11-06T11:04:26.361Z,5504
2018-11-06T11:05:36.723Z,5496
2018-11-06T11:06:48.067Z,5352
2018-11-06T11:07:59.032Z,5372
2018-11-06T11:09:12.024Z,5440
2018-11-06T11:10:23.373Z,5496
2018-11-06T11:11:34.484Z,5440
2018-11-06T11:12:45.878Z,5516
2018-11-06T11:13:56.728Z,5580
2018-11-06T11:15:07.880Z,5440
2018-11-06T11:16:19.562Z,5512
2018-11-06T11:17:30.353Z,5516
2018-11-06T11:18:40.711Z,5404
2018-11-06T11:19:50.763Z,5392
2018-11-06T11:21:01.116Z,5424
2018-11-06T11:22:11.238Z,5488
2018-11-06T11:23:22.210Z,5472
2018-11-06T11:24:32.354Z,5476
2018-11-06T11:25:42.812Z,5500
2018-11-06T11:26:53.377Z,5432
2018-11-06T11:28:03.479Z,5424
2018-11-06T11:29:13.959Z,5416
2018-11-06T11:30:24.050Z,5432
2018-11-06T11:31:33.955Z,5452
2018-11-06T11:32:44.110Z,5504
2018-11-06T11:33:54.234Z,5480
2018-11-06T11:35:04.219Z,5460
2018-11-06T11:36:14.319Z,5368
2018-11-06T11:37:24.290Z,5372
2018-11-06T11:38:33.841Z,5400
2018-11-06T11:39:43.705Z,5456
2018-11-06T11:40:52.729Z,5408
2018-11-06T11:42:04.927Z,5404
2018-11-06T11:43:15.025Z,5444
2018-11-06T11:44:25.136Z,5360
2018-11-06T11:45:35.693Z,5316
2018-11-06T11:46:45.529Z,5336
2018-11-06T11:47:56.610Z,5344
2018-11-06T11:49:06.227Z,5448
2018-11-06T11:50:16.309Z,5428
2018-11-06T11:51:26.401Z,5408
2018-11-06T11:52:36.240Z,5404
2018-11-06T11:53:46.397Z,5392
2018-11-06T11:54:56.487Z,5312
2018-11-06T11:56:05.767Z,5316
2018-11-06T11:57:15.611Z,5360
2018-11-06T11:58:25.950Z,5440
2018-11-06T11:59:35.559Z,5500
2018-11-06T12:00:45.659Z,5420
2018-11-06T12:01:55.773Z,5440
2018-11-06T12:03:06.093Z,5528
2018-11-06T12:04:16.274Z,5516
2018-11-06T12:05:26.139Z,5500
2018-11-06T12:06:36.229Z,5576
2018-11-06T12:07:46.345Z,5636
2018-11-06T12:08:56.168Z,5516
2018-11-06T12:10:07.523Z,5536
2018-11-06T12:11:17.734Z,5556
2018-11-06T12:12:27.817Z,5528
2018-11-06T12:13:37.953Z,5504
2018-11-06T12:14:48.034Z,5420
2018-11-06T12:15:58.146Z,5372
2018-11-06T12:17:08.229Z,5472
2018-11-06T12:18:18.667Z,5460
2018-11-06T12:19:28.927Z,5456
2018-11-06T12:20:39.141Z,5380
2018-11-06T12:21:48.737Z,5320
2018-11-06T12:22:58.619Z,5364
2018-11-06T12:24:09.051Z,5396
2018-11-06T12:25:20.591Z,5340
2018-11-06T12:26:31.366Z,5324
2018-11-06T12:27:41.202Z,5236
2018-11-06T12:28:51.076Z,5252
2018-11-06T12:30:01.413Z,5284
2018-11-06T12:31:11.450Z,5144
2018-11-06T12:32:21.294Z,5068
2018-11-06T12:33:31.500Z,5180
2018-11-06T12:34:41.360Z,5084
2018-11-06T12:35:50.916Z,5076
2018-11-06T12:37:03.063Z,4960
2018-11-06T12:38:13.564Z,4960
2018-11-06T12:39:23.384Z,4908
2018-11-06T12:40:33.276Z,4808
2018-11-06T12:41:43.094Z,4820
2018-11-06T12:42:53.084Z,4744
2018-11-06T12:44:03.005Z,4724
2018-11-06T12:45:12.568Z,4584
2018-11-06T12:46:22.887Z,4676
2018-11-06T12:47:33.233Z,4648
2018-11-06T12:48:43.326Z,4588
2018-11-06T12:49:53.406Z,4536
2018-11-06T12:51:03.219Z,4576
2018-11-06T12:52:13.190Z,4616
2018-11-06T12:53:23.013Z,4480
2018-11-06T12:54:33.070Z,4512
2018-11-06T12:55:42.636Z,4480
2018-11-06T12:56:52.961Z,4424
2018-11-06T12:58:02.564Z,4400
2018-11-06T12:59:12.395Z,4436
2018-11-06T13:00:22.469Z,4336
2018-11-06T13:01:32.020Z,4268
2018-11-06T13:02:41.864Z,4276
2018-11-06T13:03:51.932Z,4192
2018-11-06T13:05:01.767Z,4180
2018-11-06T13:06:11.601Z,4172
2018-11-06T13:07:21.976Z,4204
2018-11-06T13:08:32.094Z,4096
2018-11-06T13:09:42.297Z,4120
2018-11-06T13:10:51.891Z,4052
2018-11-06T13:12:01.734Z,4056
2018-11-06T13:13:11.572Z,4040
2018-11-06T13:14:21.673Z,3968
2018-11-06T13:15:32.093Z,3956
2018-11-06T13:16:42.407Z,3864
2018-11-06T13:17:52.229Z,3864
2018-11-06T13:19:02.424Z,3860
2018-11-06T13:20:12.236Z,3772
2018-11-06T13:21:22.077Z,3784
2018-11-06T13:22:32.152Z,3748
2018-11-06T13:23:41.972Z,3676
2018-11-06T13:24:52.009Z,3652
2018-11-06T13:26:01.663Z,3612
2018-11-06T13:27:12.248Z,3540
2018-11-06T13:28:21.873Z,3504
2018-11-06T13:29:32.223Z,3472
2018-11-06T13:30:42.339Z,3420
2018-11-06T13:31:51.443Z,3376
2018-11-06T13:33:01.392Z,3372
2018-11-06T13:34:11.262Z,3316
2018-11-06T13:35:21.081Z,3312
2018-11-06T13:36:30.900Z,3252
2018-11-06T13:37:39.943Z,3200
2018-11-06T13:38:50.286Z,3172
2018-11-06T13:40:00.072Z,3172
2018-11-06T13:41:10.352Z,3124
2018-11-06T13:42:20.474Z,3084
2018-11-06T13:43:31.494Z,3076
2018-11-06T13:44:43.868Z,2992
2018-11-06T13:45:55.180Z,2960
2018-11-06T13:47:05.297Z,2916
2018-11-06T13:48:15.152Z,2916
2018-11-06T13:49:25.013Z,2820
2018-11-06T13:50:34.704Z,2820
2018-11-06T13:51:44.522Z,2776
2018-11-06T13:52:54.604Z,2728
2018-11-06T13:54:04.427Z,2676
2018-11-06T13:55:14.283Z,2596
2018-11-06T13:56:24.174Z,2604
2018-11-06T13:57:34.541Z,2564
2018-11-06T13:58:44.657Z,2544
2018-11-06T13:59:54.738Z,2520
2018-11-06T14:01:05.166Z,2472
2018-11-06T14:02:15.029Z,2444
2018-11-06T14:03:25.165Z,2424
2018-11-06T14:04:35.493Z,2404
2018-11-06T14:05:44.817Z,2376
2018-11-06T14:06:54.387Z,2336
2018-11-06T14:08:04.222Z,2304
2018-11-06T14:09:14.257Z,2256
2018-11-06T14:10:24.356Z,2232
2018-11-06T14:11:34.555Z,2196
2018-11-06T14:12:44.444Z,2152
2018-11-06T14:13:54.548Z,2076
2018-11-06T14:15:04.377Z,2060
2018-11-06T14:16:14.196Z,2000
2018-11-06T14:17:23.745Z,1980
2018-11-06T14:26:03.197Z,1672
2018-11-06T14:27:14.027Z,1616
2018-11-06T14:28:24.205Z,1584
2018-11-06T14:29:34.309Z,1544
2018-11-06T14:30:44.131Z,1508
2018-11-06T14:31:55.680Z,1464
2018-11-06T14:33:06.120Z,1420
2018-11-06T14:34:15.957Z,1368
2018-11-06T14:35:26.049Z,1324
2018-11-06T14:36:35.879Z,1288
2018-11-06T14:37:45.430Z,1248
2018-11-06T14:38:55.285Z,1204
2018-11-06T14:40:05.107Z,1168
2018-11-06T14:41:14.955Z,1128
2018-11-06T14:42:25.502Z,1092
2018-11-06T14:43:35.420Z,1056
2018-11-06T14:44:45.509Z,1020
2018-11-06T14:45:55.317Z,984
2018-11-06T14:47:05.141Z,948
2018-11-06T14:48:15.544Z,912
2018-11-06T14:49:26.268Z,876
2018-11-06T14:50:35.778Z,840
2018-11-06T14:51:44.900Z,812
2018-11-06T14:52:55.016Z,780
2018-11-06T14:54:05.127Z,752
2018-11-06T14:55:14.687Z,724
2018-11-06T14:56:23.982Z,696
2018-11-06T14:57:34.086Z,668
2018-11-06T14:58:43.955Z,640
2018-11-06T14:59:53.786Z,612
2018-11-06T15:01:03.623Z,584
2018-11-06T15:02:13.165Z,556
2018-11-06T15:03:22.731Z,528
2018-11-06T15:04:32.299Z,504
2018-11-06T15:05:42.723Z,476
2018-11-06T15:06:53.001Z,444
2018-11-06T15:08:04.279Z,408
2018-11-06T15:09:14.159Z,372
2018-11-06T15:10:24.012Z,340
2018-11-06T15:11:33.826Z,320
2018-11-06T15:12:43.693Z,296
2018-11-06T15:13:53.995Z,272
2018-11-06T15:15:03.802Z,252
2018-11-06T15:16:13.984Z,236
2018-11-06T15:17:23.278Z,216
2018-11-06T15:18:32.568Z,204
2018-11-06T15:19:42.376Z,188
2018-11-06T15:20:52.613Z,168
2018-11-06T15:22:02.818Z,156
2018-11-06T15:23:12.376Z,140
2018-11-06T15:24:22.450Z,128
2018-11-06T15:25:32.539Z,112
2018-11-06T15:26:41.840Z,100
2018-11-06T15:27:51.685Z,92
2018-11-06T15:29:01.804Z,80
2018-11-06T15:30:11.633Z,68
2018-11-06T15:31:21.493Z,64
2018-11-06T15:32:32.334Z,56
2018-11-06T15:33:42.436Z,44
2018-11-06T15:34:52.530Z,40
2018-11-06T15:36:02.830Z,36
2018-11-06T15:37:13.016Z,32
2018-11-06T15:38:22.317Z,24
2018-11-06T15:39:31.456Z,24
2018-11-06T15:40:41.010Z,16
2018-11-06T15:41:51.618Z,16
2018-11-06T15:43:01.358Z,12
2018-11-06T15:44:10.900Z,12
2018-11-06T15:45:20.711Z,12
2018-11-06T15:46:31.201Z,8
2018-11-06T15:47:41.038Z,8
2018-11-06T15:48:51.854Z,4
2018-11-06T15:50:01.390Z,4
2018-11-06T15:51:11.463Z,4
2018-11-06T15:52:21.020Z,0
2018-11-06T15:53:30.849Z,4
2018-11-06T15:54:41.188Z,4
2018-11-06T15:55:51.456Z,4
2018-11-06T15:57:01.890Z,0
2018-11-06T15:58:11.978Z,0
2018-11-06T15:59:22.104Z,0
2018-11-06T16:00:32.267Z,0
2018-11-06T16:01:42.561Z,0
2018-11-06T16:02:52.150Z,0
2018-11-06T16:04:02.235Z,0
2018-11-06T16:05:12.341Z,0
2018-11-06T16:06:22.161Z,0
2018-11-06T16:07:32.340Z,0
2018-11-06T16:08:42.211Z,0
2018-11-06T16:09:52.543Z,0
2018-11-06T16:11:02.721Z,0
2018-11-06T16:12:12.885Z,0
2018-11-06T16:13:22.994Z,0
2018-11-06T16:14:33.073Z,0
2018-11-06T16:15:43.178Z,0
2018-11-06T16:16:53.254Z,0
2018-11-06T16:18:03.082Z,0
2018-11-06T16:19:12.905Z,0
2018-11-06T16:20:22.728Z,0
2018-11-06T16:21:32.781Z,0
2018-11-06T16:22:43.112Z,0
2018-11-06T16:23:53.044Z,0
2018-11-06T16:25:03.122Z,0
2018-11-06T16:26:13.353Z,0
2018-11-06T16:27:23.176Z,0
2018-11-06T16:28:33.406Z,0
2018-11-06T16:29:43.624Z,0
2018-11-06T16:30:53.548Z,0
2018-11-06T16:32:03.673Z,0
2018-11-06T16:33:13.293Z,0
2018-11-06T16:34:23.382Z,0
2018-11-06T16:35:33.627Z,0
2018-11-06T16:36:43.476Z,0
2018-11-06T16:37:53.606Z,0
2018-11-06T16:39:03.733Z,0
2018-11-06T16:40:13.827Z,0
2018-11-06T16:41:23.769Z,0
2018-11-06T16:42:34.273Z,0
2018-11-06T16:43:44.373Z,0
2018-11-06T16:44:53.955Z,0
2018-11-06T16:46:04.389Z,0
2018-11-06T16:47:14.224Z,0
2018-11-06T16:48:24.669Z,0
2018-11-06T16:49:34.914Z,0
2018-11-06T16:50:44.762Z,0
2018-11-06T16:51:54.906Z,0
2018-11-06T16:53:04.458Z,0
2018-11-06T16:54:14.008Z,0
2018-11-06T16:55:23.618Z,0